Time;durP1;ratioP1;P1;durP2;ratioP2;P2;SDS_P1;SDS_P2;PMS_P1;PMS_P2;Temp;Humidity;BMP_temperature;BMP_pressure;BME280_temperature;BME280_humidity;BME280_pressure;Samples;Min_cycle;Max_cycle;Signal;HPM_P1;HPM_P2
2022/06/20 00:01:18;;;;;;;9.30;8.00;;;23.30;94.70;;;;;;5054473;28;20445;-48
2022/06/20 00:03:48;;;;;;;9.63;7.33;;;23.30;94.70;;;;;;5053944;28;20981;-48
2022/06/20 00:06:16;;;;;;;7.43;6.47;;;23.30;95.10;;;;;;5054612;28;20491;-47
2022/06/20 00:08:44;;;;;;;9.80;7.67;;;23.30;95.00;;;;;;5054206;28;20480;-48
2022/06/20 00:11:15;;;;;;;7.07;6.30;;;23.30;94.50;;;;;;5054088;28;20445;-47
2022/06/20 00:13:45;;;;;;;7.60;6.30;;;23.30;94.60;;;;;;5054206;28;20535;-47
2022/06/20 00:16:14;;;;;;;6.57;5.93;;;23.30;94.60;;;;;;5054724;28;20437;-49
2022/06/20 00:18:41;;;;;;;9.10;7.00;;;23.30;94.30;;;;;;5054424;28;20487;-54
2022/06/20 00:21:13;;;;;;;11.27;6.93;;;23.40;95.00;;;;;;5054309;28;20445;-48
2022/06/20 00:23:40;;;;;;;8.70;6.43;;;23.30;95.10;;;;;;5053888;28;20989;-47
2022/06/20 00:26:07;;;;;;;7.20;6.57;;;23.20;95.10;;;;;;5054305;28;20449;-48
2022/06/20 00:28:36;;;;;;;7.50;6.70;;;23.10;95.20;;;;;;5053990;28;20551;-48
2022/06/20 00:31:03;;;;;;;7.93;6.40;;;23.00;95.20;;;;;;5054125;28;20523;-48
2022/06/20 00:33:30;;;;;;;8.77;6.43;;;23.10;96.10;;;;;;5053754;28;20524;-49
2022/06/20 00:35:59;;;;;;;7.90;6.53;;;22.80;96.30;;;;;;5054179;28;20441;-48
2022/06/20 00:38:26;;;;;;;9.10;6.93;;;22.50;96.70;;;;;;5053751;28;20441;-47
2022/06/20 00:40:57;;;;;;;6.80;6.20;;;22.60;96.80;;;;;;5053392;28;20484;-49
2022/06/20 00:43:27;;;;;;;9.00;6.77;;;22.70;96.50;;;;;;5052779;28;20445;-47
2022/06/20 00:45:58;;;;;;;8.60;6.73;;;22.70;96.20;;;;;;5053725;28;20510;-46
2022/06/20 00:48:31;;;;;;;8.00;7.20;;;22.80;96.30;;;;;;5054031;28;20480;-47
2022/06/20 00:51:05;;;;;;;12.30;7.87;;;22.80;96.00;;;;;;5053408;28;21001;-47
2022/06/20 00:53:40;;;;;;;7.63;6.77;;;22.90;96.70;;;;;;5053563;28;20472;-50
2022/06/20 00:56:14;;;;;;;9.77;7.43;;;22.90;96.90;;;;;;5053647;28;20475;-47
2022/06/20 00:58:47;;;;;;;7.37;6.67;;;22.80;97.10;;;;;;5053406;28;20498;-47
2022/06/20 01:01:17;;;;;;;7.60;6.90;;;22.80;97.20;;;;;;5053331;28;20453;-47
2022/06/20 01:03:50;;;;;;;9.00;7.27;;;22.80;96.90;;;;;;5052891;28;20500;-50
2022/06/20 01:06:23;;;;;;;8.57;7.50;;;22.80;96.50;;;;;;5053462;28;20587;-49
2022/06/20 01:08:55;;;;;;;8.47;6.53;;;22.70;96.80;;;;;;5052969;28;20441;-47
2022/06/20 01:11:26;;;;;;;7.80;6.97;;;22.70;96.80;;;;;;5053147;28;20465;-47
2022/06/20 01:13:54;;;;;;;8.23;7.00;;;22.60;97.10;;;;;;5053008;28;20516;-49
2022/06/20 01:16:29;;;;;;;7.83;6.30;;;22.40;97.00;;;;;;5053097;28;20441;-47
2022/06/20 01:18:57;;;;;;;7.83;7.07;;;22.50;97.40;;;;;;5052913;28;20472;-48
2022/06/20 01:21:29;;;;;;;8.83;7.30;;;22.40;97.20;;;;;;5053149;28;20445;-47
2022/06/20 01:24:06;;;;;;;12.80;7.17;;;22.50;97.70;;;;;;5053119;28;20466;-47
2022/06/20 01:26:42;;;;;;;10.17;6.93;;;22.40;97.50;;;;;;5052782;28;20871;-47
2022/06/20 01:29:12;;;;;;;6.97;6.30;;;22.50;97.70;;;;;;5052741;28;20441;-47
2022/06/20 01:31:43;;;;;;;9.13;6.77;;;22.40;97.40;;;;;;5053204;28;20441;-48
2022/06/20 01:34:13;;;;;;;7.33;6.63;;;22.50;97.20;;;;;;5052600;28;20477;-49
2022/06/20 01:39:28;;;;;;;7.30;6.17;;;22.50;96.50;;;;;;5052324;28;20519;-48
2022/06/20 01:44:46;;;;;;;7.53;6.80;;;22.50;97.20;;;;;;5052675;28;20437;-47
2022/06/20 01:47:13;;;;;;;8.30;7.00;;;22.60;97.40;;;;;;5052456;28;20528;-47
2022/06/20 01:49:42;;;;;;;8.37;7.50;;;22.60;97.50;;;;;;5052138;28;20488;-47
2022/06/20 01:52:15;;;;;;;8.57;7.50;;;22.50;97.50;;;;;;5052545;28;20520;-51
2022/06/20 01:54:45;;;;;;;7.73;6.70;;;22.50;97.90;;;;;;5052097;28;20465;-49
2022/06/20 01:57:13;;;;;;;8.03;6.77;;;22.50;98.00;;;;;;5051926;28;20495;-47
2022/06/20 01:59:47;;;;;;;8.00;7.30;;;22.50;97.90;;;;;;5051869;28;20441;-48
2022/06/20 02:02:15;;;;;;;7.70;7.00;;;22.50;97.70;;;;;;5052535;28;20528;-47
2022/06/20 02:04:43;;;;;;;8.53;7.70;;;22.30;97.60;;;;;;5051913;28;20538;-47
2022/06/20 02:07:12;;;;;;;6.93;6.23;;;22.40;97.90;;;;;;5052222;28;20449;-47
2022/06/20 02:09:40;;;;;;;7.33;6.60;;;22.30;98.30;;;;;;5051875;28;20449;-47
2022/06/20 02:12:09;;;;;;;8.33;6.90;;;22.20;98.10;;;;;;5051929;28;20537;-47
2022/06/20 02:14:41;;;;;;;9.90;7.53;;;22.20;98.10;;;;;;5051975;28;20511;-47
2022/06/20 02:17:15;;;;;;;8.97;7.37;;;22.20;97.70;;;;;;5052131;28;20451;-47
2022/06/20 02:19:48;;;;;;;8.10;6.77;;;22.20;98.50;;;;;;5051660;28;20515;-47
2022/06/20 02:22:18;;;;;;;7.00;6.40;;;22.20;98.20;;;;;;5052239;28;20481;-47
2022/06/20 02:24:50;;;;;;;9.20;7.20;;;22.20;98.70;;;;;;5051444;28;20513;-47
2022/06/20 02:27:22;;;;;;;7.23;6.53;;;22.20;98.50;;;;;;5051973;28;20445;-47
2022/06/20 02:29:49;;;;;;;10.93;6.60;;;21.90;98.20;;;;;;5051415;28;20969;-47
2022/06/20 02:32:21;;;;;;;12.30;7.37;;;22.00;98.50;;;;;;5051745;28;20532;-48
2022/06/20 02:34:49;;;;;;;9.77;7.40;;;22.10;98.40;;;;;;5051591;28;20548;-49
2022/06/20 02:37:20;;;;;;;8.20;7.50;;;22.10;98.50;;;;;;5051689;28;21127;-47
2022/06/20 02:39:49;;;;;;;8.23;6.67;;;22.10;98.90;;;;;;5051409;28;20449;-47
2022/06/20 02:42:21;;;;;;;10.00;7.23;;;22.10;98.70;;;;;;5051621;28;20568;-50
2022/06/20 02:44:49;;;;;;;9.10;6.97;;;22.00;98.50;;;;;;5051329;28;20485;-47
2022/06/20 02:47:20;;;;;;;7.13;6.43;;;22.00;98.30;;;;;;5051515;28;20820;-47
2022/06/20 02:49:49;;;;;;;8.33;7.17;;;22.00;98.90;;;;;;5050906;28;20540;-47
2022/06/20 02:52:21;;;;;;;8.17;7.40;;;22.00;99.00;;;;;;5051041;28;20437;-51
2022/06/20 02:54:49;;;;;;;7.77;6.97;;;22.00;98.80;;;;;;5051428;28;20511;-48
2022/06/20 02:57:21;;;;;;;7.17;6.47;;;22.00;98.70;;;;;;5051221;28;20821;-47
2022/06/20 02:59:52;;;;;;;8.20;6.90;;;21.90;98.40;;;;;;5050951;28;20942;-48
2022/06/20 03:02:25;;;;;;;8.00;6.60;;;21.90;98.90;;;;;;5051387;28;20496;-47
2022/06/20 03:04:52;;;;;;;9.80;8.37;;;21.90;99.30;;;;;;5050812;28;20916;-52
2022/06/20 03:07:23;;;;;;;8.07;7.27;;;21.80;99.50;;;;;;5050948;28;20437;-47
2022/06/20 03:09:58;;;;;;;7.70;6.77;;;21.80;99.30;;;;;;5050987;28;20471;-49
2022/06/20 03:12:25;;;;;;;12.17;7.37;;;21.80;99.30;;;;;;5051534;28;20448;-48
2022/06/20 03:14:56;;;;;;;8.27;6.40;;;21.80;99.50;;;;;;5051391;28;20496;-47
2022/06/20 03:17:25;;;;;;;7.80;7.10;;;21.80;99.50;;;;;;5051335;28;20469;-47
2022/06/20 03:19:55;;;;;;;7.20;6.60;;;21.70;99.80;;;;;;5050933;28;20449;-47
2022/06/20 03:22:24;;;;;;;7.90;7.20;;;21.60;99.70;;;;;;5051070;28;20882;-47
2022/06/20 03:24:52;;;;;;;9.33;8.43;;;21.70;99.80;;;;;;5124966;22;21035;-48
2022/06/20 03:27:24;;;;;;;8.37;7.50;;;21.60;99.50;;;;;;5091283;28;20496;-50
2022/06/20 03:29:55;;;;;;;8.13;7.43;;;21.50;99.60;;;;;;5090921;28;20450;-47
2022/06/20 03:32:25;;;;;;;7.87;7.07;;;21.60;99.80;;;;;;5091293;28;20446;-48
2022/06/20 03:34:52;;;;;;;8.23;7.20;;;21.60;99.70;;;;;;5091055;28;20521;-49
2022/06/20 03:37:20;;;;;;;9.37;7.27;;;21.60;99.60;;;;;;5091411;28;20504;-47
2022/06/20 03:39:50;;;;;;;7.97;7.27;;;21.60;99.50;;;;;;5090850;28;20447;-47
2022/06/20 03:42:18;;;;;;;9.57;8.17;;;21.60;99.90;;;;;;5091050;28;20450;-47
2022/06/20 03:44:50;;;;;;;8.50;7.00;;;21.60;99.90;;;;;;5091000;28;20529;-48
2022/06/20 03:47:22;;;;;;;14.90;7.90;;;21.50;99.90;;;;;;5090801;28;20871;-47
2022/06/20 03:49:56;;;;;;;9.57;7.07;;;21.30;99.90;;;;;;5091185;28;20486;-47
2022/06/20 03:52:25;;;;;;;8.93;6.30;;;21.40;99.90;;;;;;5090903;28;20587;-48
2022/06/20 03:54:59;;;;;;;8.50;7.80;;;21.50;99.90;;;;;;5090958;28;20463;-47
2022/06/20 03:57:33;;;;;;;8.50;6.67;;;21.50;99.90;;;;;;5091257;28;20467;-47
2022/06/20 04:00:05;;;;;;;10.33;7.87;;;21.60;99.90;;;;;;5090785;28;20467;-47
2022/06/20 04:02:36;;;;;;;8.40;7.37;;;21.50;99.90;;;;;;5091082;28;20443;-47
2022/06/20 04:05:08;;;;;;;9.53;7.73;;;21.50;99.90;;;;;;5090640;28;20528;-47
2022/06/20 04:07:41;;;;;;;7.47;6.77;;;21.50;99.90;;;;;;5090791;28;20467;-47
2022/06/20 04:13:18;;;;;;;11.60;7.17;;;21.40;99.90;;;;;;5048213;28;20416;-50
2022/06/20 04:15:49;;;;;;;8.80;7.90;;;21.50;99.90;;;;;;5082790;28;20495;-47
2022/06/20 04:18:30;;;;;;;9.63;7.77;;;21.50;99.90;;;;;;5090614;28;20858;-48
2022/06/20 04:21:09;;;;;;;12.60;9.10;;;21.50;99.90;;;;;;5094446;28;20508;-47
2022/06/20 04:23:43;;;;;;;10.17;8.00;;;21.30;99.90;;;;;;5094592;28;20868;-47
2022/06/20 04:26:15;;;;;;;9.93;8.93;;;21.30;99.90;;;;;;5094085;28;20901;-50
2022/06/20 04:28:46;;;;;;;9.57;8.20;;;21.30;99.90;;;;;;5094142;28;20526;-47
2022/06/20 04:31:20;;;;;;;8.20;7.40;;;21.40;99.90;;;;;;5094629;28;20508;-47
2022/06/20 04:33:52;;;;;;;7.57;6.80;;;21.50;99.90;;;;;;5094343;28;20493;-47
2022/06/20 04:36:31;;;;;;;8.20;7.40;;;21.60;99.90;;;;;;5093966;28;20455;-50
2022/06/20 04:39:04;;;;;;;12.43;8.47;;;21.60;99.90;;;;;;5093805;28;20526;-47
2022/06/20 04:41:42;;;;;;;9.37;8.37;;;21.60;99.90;;;;;;5093450;28;20443;-48
2022/06/20 04:44:19;;;;;;;11.90;8.20;;;21.60;99.90;;;;;;5094325;28;20535;-47
2022/06/20 04:46:52;;;;;;;8.57;7.80;;;21.70;99.90;;;;;;5094181;28;20983;-48
2022/06/20 04:49:19;;;;;;;8.20;7.30;;;21.70;99.90;;;;;;5093688;28;20500;-47
2022/06/20 04:51:49;;;;;;;7.80;7.00;;;21.70;99.90;;;;;;5094072;28;20471;-49
2022/06/20 04:54:20;;;;;;;8.80;7.10;;;21.80;99.90;;;;;;5093774;28;20463;-50
2022/06/20 04:56:51;;;;;;;9.87;7.80;;;21.80;99.90;;;;;;5094022;28;20439;-47
2022/06/20 04:59:22;;;;;;;9.23;7.20;;;21.80;99.90;;;;;;5093647;28;20450;-47
2022/06/20 05:01:50;;;;;;;9.63;6.80;;;21.80;99.90;;;;;;5093871;28;20448;-48
2022/06/20 05:04:27;;;;;;;10.77;7.63;;;21.90;99.90;;;;;;5093460;28;20505;-49
2022/06/20 05:06:58;;;;;;;8.17;7.07;;;22.00;99.90;;;;;;5093720;28;20506;-50
2022/06/20 05:09:31;;;;;;;8.33;7.30;;;22.00;99.90;;;;;;5093587;28;20478;-47
2022/06/20 05:12:06;;;;;;;7.90;7.20;;;22.00;99.90;;;;;;5093526;28;20439;-47
2022/06/20 05:14:41;;;;;;;7.63;6.90;;;22.00;99.90;;;;;;5093498;28;20983;-47
2022/06/20 05:17:14;;;;;;;8.33;7.63;;;22.00;99.90;;;;;;5093444;28;20851;-49
2022/06/20 05:19:44;;;;;;;10.63;8.10;;;21.90;99.90;;;;;;5093251;28;20497;-47
2022/06/20 05:22:17;;;;;;;9.10;7.60;;;21.80;99.90;;;;;;5093363;28;20435;-47
2022/06/20 05:24:45;;;;;;;10.77;7.90;;;21.80;99.90;;;;;;5092921;28;20495;-51
2022/06/20 05:27:19;;;;;;;11.57;7.87;;;21.70;99.90;;;;;;5093180;28;20810;-50
2022/06/20 05:29:46;;;;;;;7.77;6.97;;;21.80;99.90;;;;;;5093064;28;20454;-47
2022/06/20 05:32:16;;;;;;;8.67;7.70;;;21.90;99.90;;;;;;5093230;28;21034;-47
2022/06/20 05:34:47;;;;;;;9.37;8.30;;;22.00;99.90;;;;;;5092924;28;20550;-47
2022/06/20 05:37:24;;;;;;;9.50;8.50;;;22.10;99.90;;;;;;5093014;28;20485;-48
2022/06/20 05:39:55;;;;;;;10.40;9.37;;;22.10;99.90;;;;;;5092654;28;20493;-47
2022/06/20 05:42:23;;;;;;;10.20;9.10;;;22.20;99.90;;;;;;5092999;28;20493;-48
2022/06/20 05:44:49;;;;;;;14.73;9.20;;;22.20;99.90;;;;;;5092748;28;20528;-51
2022/06/20 05:47:22;;;;;;;11.93;9.47;;;22.30;99.90;;;;;;5092776;28;20440;-43
2022/06/20 05:49:53;;;;;;;9.90;8.90;;;22.30;99.90;;;;;;5092751;28;20857;-47
2022/06/20 05:52:26;;;;;;;11.03;8.73;;;22.30;99.90;;;;;;5092854;28;20439;-47
2022/06/20 05:54:58;;;;;;;10.00;8.40;;;22.30;99.90;;;;;;5092929;28;20495;-47
2022/06/20 05:57:29;;;;;;;9.07;8.10;;;22.30;99.90;;;;;;5091448;28;20458;-47
2022/06/20 05:59:59;;;;;;;9.33;8.00;;;22.20;99.90;;;;;;5091169;28;20527;-49
2022/06/20 06:02:30;;;;;;;8.20;7.30;;;22.20;99.90;;;;;;5092871;28;20518;-47
2022/06/20 06:05:03;;;;;;;8.10;7.20;;;22.40;99.90;;;;;;5092025;28;20491;-50
2022/06/20 06:07:35;;;;;;;8.40;7.60;;;22.80;99.90;;;;;;5092439;28;20482;-48
2022/06/20 06:10:19;;;;;;;9.63;8.73;;;23.50;99.90;;;;;;5092207;28;20633;-47
2022/06/20 06:12:53;;;;;;;11.07;7.77;;;24.10;99.90;;;;;;5092004;28;20473;-47
2022/06/20 06:15:37;;;;;;;8.73;7.43;;;24.70;99.90;;;;;;5091500;28;20459;-49
2022/06/20 06:18:10;;;;;;;8.97;8.00;;;25.30;99.90;;;;;;5090756;28;20443;-48
2022/06/20 06:20:38;;;;;;;9.60;8.10;;;25.20;99.90;;;;;;5090981;28;20997;-49
2022/06/20 06:23:09;;;;;;;7.60;7.00;;;25.30;99.90;;;;;;5091776;28;20577;-49
2022/06/20 06:25:38;;;;;;;8.33;7.57;;;25.30;99.90;;;;;;5091546;28;20483;-48
2022/06/20 06:28:08;;;;;;;9.13;8.23;;;25.30;99.90;;;;;;5091941;28;20445;-48
2022/06/20 06:30:41;;;;;;;8.23;7.50;;;25.30;99.90;;;;;;5091754;28;20492;-48
2022/06/20 06:33:23;;;;;;;7.80;7.00;;;25.30;99.90;;;;;;5092077;28;20505;-49
2022/06/20 06:35:55;;;;;;;8.10;7.30;;;25.20;99.90;;;;;;5091767;28;20542;-48
2022/06/20 06:38:29;;;;;;;8.97;8.07;;;25.10;99.90;;;;;;5091789;28;20928;-48
2022/06/20 06:40:57;;;;;;;8.63;7.77;;;25.10;99.90;;;;;;5091745;28;20530;-48
2022/06/20 06:43:27;;;;;;;13.53;8.50;;;25.10;99.90;;;;;;5091665;28;20873;-49
2022/06/20 06:45:57;;;;;;;7.80;7.10;;;25.20;99.90;;;;;;5091589;28;20477;-48
2022/06/20 06:48:28;;;;;;;10.47;8.00;;;25.20;99.50;;;;;;5091417;28;20444;-49
2022/06/20 06:50:58;;;;;;;8.13;7.50;;;25.30;99.90;;;;;;5091687;28;20443;-48
2022/06/20 06:53:33;;;;;;;8.10;7.47;;;25.30;99.90;;;;;;5092004;28;20446;-47
2022/06/20 06:56:05;;;;;;;8.80;7.70;;;25.20;99.90;;;;;;5091917;28;20433;-48
2022/06/20 06:58:37;;;;;;;8.40;7.60;;;25.10;99.90;;;;;;5091526;28;20479;-51
2022/06/20 07:01:11;;;;;;;7.87;7.20;;;24.90;99.90;;;;;;5091341;28;20443;-48
2022/06/20 07:03:42;;;;;;;8.73;7.80;;;24.80;99.90;;;;;;5091603;28;20422;-47
2022/06/20 07:06:15;;;;;;;10.20;9.30;;;24.50;99.90;;;;;;5090945;28;20514;-48
2022/06/20 07:08:49;;;;;;;9.60;8.70;;;24.40;99.90;;;;;;5091154;28;20443;-49
2022/06/20 07:11:21;;;;;;;10.67;8.50;;;24.20;99.90;;;;;;5091205;28;20446;-48
2022/06/20 07:13:55;;;;;;;10.00;8.80;;;23.90;99.90;;;;;;5091567;28;20501;-48
2022/06/20 07:16:25;;;;;;;10.80;8.60;;;23.90;99.90;;;;;;5091532;28;20511;-48
2022/06/20 07:18:54;;;;;;;9.17;8.30;;;23.90;99.90;;;;;;5090901;28;20886;-47
2022/06/20 07:21:24;;;;;;;9.70;8.80;;;24.00;99.90;;;;;;5091473;28;20483;-50
2022/06/20 07:23:57;;;;;;;9.80;8.90;;;24.00;99.90;;;;;;5091872;28;20463;-45
2022/06/20 07:26:26;;;;;;;9.53;8.23;;;24.10;99.90;;;;;;5091296;28;20566;-49
2022/06/20 07:28:59;;;;;;;12.93;10.10;;;24.10;99.90;;;;;;5091181;28;20439;-47
2022/06/20 07:31:32;;;;;;;11.43;10.30;;;24.00;99.90;;;;;;5091440;28;20447;-46
2022/06/20 07:34:06;;;;;;;12.97;9.90;;;23.80;99.90;;;;;;5091323;28;20444;-47
2022/06/20 07:36:45;;;;;;;11.03;9.80;;;23.80;99.90;;;;;;5091392;28;20454;-48
2022/06/20 07:39:19;;;;;;;11.07;9.87;;;23.80;99.90;;;;;;5091027;28;20443;-48
2022/06/20 07:41:50;;;;;;;10.83;9.73;;;23.70;99.90;;;;;;5091086;28;20448;-47
2022/06/20 07:44:22;;;;;;;11.80;10.23;;;23.70;99.90;;;;;;5091337;28;20516;-49
2022/06/20 07:46:54;;;;;;;10.57;9.67;;;23.80;99.90;;;;;;5091601;28;20570;-50
2022/06/20 07:49:27;;;;;;;12.03;9.90;;;23.90;99.90;;;;;;5090807;28;20475;-49
2022/06/20 07:51:59;;;;;;;12.77;11.10;;;24.00;99.90;;;;;;5091632;28;20531;-49
2022/06/20 07:54:30;;;;;;;10.20;9.20;;;24.00;99.90;;;;;;5092807;28;20491;-49
2022/06/20 07:57:01;;;;;;;10.77;9.57;;;24.00;99.90;;;;;;5095117;28;20435;-48
2022/06/20 07:59:33;;;;;;;11.30;9.97;;;24.10;99.90;;;;;;5094853;28;20467;-48
2022/06/20 08:02:06;;;;;;;11.03;9.90;;;24.20;99.90;;;;;;5095180;28;20475;-47
2022/06/20 08:04:35;;;;;;;10.53;8.93;;;24.30;99.90;;;;;;5094348;28;20478;-47
2022/06/20 08:07:07;;;;;;;9.73;8.10;;;24.40;99.90;;;;;;5094635;28;20479;-50
2022/06/20 08:09:41;;;;;;;10.00;9.00;;;24.50;99.90;;;;;;5094480;28;20986;-50
2022/06/20 08:12:16;;;;;;;10.03;9.03;;;24.60;99.90;;;;;;5094646;28;20489;-48
2022/06/20 08:14:49;;;;;;;10.33;9.43;;;24.70;99.90;;;;;;5094520;28;20516;-49
2022/06/20 08:17:16;;;;;;;11.37;9.53;;;24.80;99.90;;;;;;5094720;28;20526;-48
2022/06/20 08:19:45;;;;;;;12.70;9.30;;;25.00;99.90;;;;;;5094069;28;20891;-51
2022/06/20 08:22:16;;;;;;;10.00;9.03;;;25.00;99.90;;;;;;5094488;28;20440;-47
2022/06/20 08:24:49;;;;;;;10.63;9.73;;;25.10;99.90;;;;;;5094187;28;20471;-51
2022/06/20 08:27:24;;;;;;;10.97;8.67;;;25.30;99.90;;;;;;5094428;28;20983;-48
2022/06/20 08:29:58;;;;;;;11.73;10.50;;;25.30;99.90;;;;;;5094278;28;21137;-48
2022/06/20 08:32:32;;;;;;;10.07;9.27;;;25.20;99.80;;;;;;5094299;28;20530;-48
2022/06/20 08:35:07;;;;;;;10.60;9.60;;;25.30;99.90;;;;;;5094233;28;20491;-49
2022/06/20 08:37:40;;;;;;;10.27;9.37;;;25.40;99.90;;;;;;5094210;28;20518;-48
2022/06/20 08:40:30;;;;;;;13.07;10.87;;;25.40;99.90;;;;;;5093837;28;20952;-49
2022/06/20 08:43:19;;;;;;;12.90;11.23;;;25.60;99.90;;;;;;5094168;28;20422;-50
2022/06/20 08:46:13;;;;;;;19.63;13.73;;;25.70;99.90;;;;;;5094089;28;20459;-48
2022/06/20 08:49:18;;;;;;;10.23;9.23;;;25.90;99.90;;;;;;5094100;28;20475;-46
2022/06/20 08:52:27;;;;;;;11.07;10.03;;;26.00;99.90;;;;;;5093905;28;20475;-48
2022/06/20 08:55:32;;;;;;;11.87;10.73;;;26.00;99.90;;;;;;5093984;28;20462;-48
2022/06/20 08:58:09;;;;;;;9.70;8.80;;;26.00;99.20;;;;;;5031138;28;20934;-48
2022/06/20 09:00:43;;;;;;;11.37;10.20;;;26.00;99.90;;;;;;5083062;28;20522;-49
2022/06/20 09:03:45;;;;;;;11.27;9.10;;;26.20;99.90;;;;;;5093952;28;20468;-47
2022/06/20 09:06:39;;;;;;;11.23;9.87;;;26.20;99.90;;;;;;5093418;28;20482;-48
2022/06/20 09:09:39;;;;;;;11.10;9.83;;;26.20;99.90;;;;;;5093346;28;21027;-48
2022/06/20 09:12:20;;;;;;;12.07;10.00;;;26.30;99.80;;;;;;5092866;28;20442;-52
2022/06/20 09:15:08;;;;;;;10.70;9.60;;;26.30;99.90;;;;;;5092917;28;20455;-49
2022/06/20 09:17:44;;;;;;;10.70;9.60;;;26.40;99.90;;;;;;5093735;28;21032;-48
2022/06/20 09:20:23;;;;;;;9.67;8.77;;;26.40;99.90;;;;;;5093347;28;20463;-48
2022/06/20 09:23:05;;;;;;;11.00;9.50;;;26.50;99.90;;;;;;5093466;28;20496;-48
2022/06/20 09:25:40;;;;;;;11.43;10.27;;;26.50;99.90;;;;;;5094702;28;20825;-48
2022/06/20 09:28:29;;;;;;;11.03;9.10;;;26.60;99.90;;;;;;5093543;28;20471;-48
2022/06/20 09:31:07;;;;;;;12.30;10.23;;;26.70;99.90;;;;;;5093285;28;20479;-48
2022/06/20 09:34:04;;;;;;;11.00;9.80;;;26.80;99.90;;;;;;5093383;28;20469;-48
2022/06/20 09:36:51;;;;;;;10.83;9.33;;;26.80;96.80;;;;;;5093091;28;20431;-47
2022/06/20 09:39:39;;;;;;;12.50;8.67;;;26.90;97.50;;;;;;5092812;28;20463;-48
2022/06/20 09:42:19;;;;;;;8.40;7.57;;;27.00;97.40;;;;;;5093279;28;20514;-49
2022/06/20 09:44:55;;;;;;;9.47;7.50;;;27.20;94.70;;;;;;5092874;28;20520;-49
2022/06/20 09:47:34;;;;;;;13.47;8.83;;;27.30;95.70;;;;;;5092979;28;20605;-49
2022/06/20 09:50:23;;;;;;;9.60;8.53;;;27.30;94.50;;;;;;5093083;28;20475;-49
2022/06/20 09:53:02;;;;;;;9.73;8.50;;;27.40;95.00;;;;;;5092594;28;20447;-49
2022/06/20 09:55:34;;;;;;;11.13;9.17;;;27.40;96.00;;;;;;5092703;28;20976;-49
2022/06/20 09:58:09;;;;;;;11.97;8.00;;;27.70;98.20;;;;;;5092640;28;20629;-49
2022/06/20 10:00:45;;;;;;;11.23;8.83;;;27.70;98.10;;;;;;5092301;28;20474;-48
2022/06/20 10:03:20;;;;;;;10.20;8.20;;;27.80;96.70;;;;;;5092466;28;20807;-48
2022/06/20 10:05:52;;;;;;;11.97;8.00;;;27.70;92.40;;;;;;5092036;28;20975;-48
2022/06/20 10:08:33;;;;;;;8.63;7.83;;;27.70;93.00;;;;;;5092371;28;20475;-52
2022/06/20 10:11:07;;;;;;;14.73;8.23;;;27.80;92.10;;;;;;5092089;28;20808;-50
2022/06/20 10:13:41;;;;;;;15.07;8.00;;;27.90;93.70;;;;;;5092585;28;20520;-49
2022/06/20 10:16:16;;;;;;;14.97;8.90;;;27.70;90.70;;;;;;5091832;28;20475;-47
2022/06/20 10:18:51;;;;;;;9.57;7.53;;;27.70;90.90;;;;;;5089426;28;20435;-48
2022/06/20 10:21:24;;;;;;;29.17;9.83;;;27.70;92.30;;;;;;5092396;28;20467;-48
2022/06/20 10:24:35;;;;;;;40.03;10.90;;;27.70;92.10;;;;;;5092505;28;20414;-48
2022/06/20 10:27:16;;;;;;;8.83;6.57;;;27.80;90.70;;;;;;5028983;28;20474;-48
2022/06/20 10:30:12;;;;;;;14.33;8.70;;;27.90;92.40;;;;;;5028706;28;20449;-50
2022/06/20 10:32:55;;;;;;;18.87;9.23;;;28.10;90.70;;;;;;5075415;28;20446;-51
2022/06/20 10:35:43;;;;;;;11.50;7.90;;;28.30;88.70;;;;;;5091109;28;20866;-48
2022/06/20 10:38:25;;;;;;;13.17;7.50;;;28.40;90.90;;;;;;5091859;28;20440;-48
2022/06/20 10:41:00;;;;;;;11.20;7.53;;;28.40;91.10;;;;;;5091401;28;20884;-48
2022/06/20 10:43:43;;;;;;;8.70;7.90;;;28.40;90.10;;;;;;5091669;28;20467;-47
2022/06/20 10:46:12;;;;;;;11.13;8.90;;;28.50;90.10;;;;;;5091510;28;20460;-49
2022/06/20 10:48:56;;;;;;;11.33;7.47;;;28.60;92.30;;;;;;5078598;28;21063;-53
2022/06/20 10:51:33;;;;;;;13.30;8.97;;;28.50;90.30;;;;;;5072301;28;20439;-48
2022/06/20 10:54:14;;;;;;;10.90;7.97;;;28.50;88.80;;;;;;5071567;28;20425;-49
2022/06/20 10:56:49;;;;;;;8.90;8.00;;;28.60;90.90;;;;;;5071537;28;20812;-50
2022/06/20 10:59:28;;;;;;;10.40;8.83;;;28.70;89.40;;;;;;5070909;28;20508;-49
2022/06/20 11:02:02;;;;;;;9.97;8.70;;;28.70;90.00;;;;;;5071828;28;20855;-48
2022/06/20 11:04:58;;;;;;;22.37;8.90;;;28.80;90.20;;;;;;5070847;28;20515;-48
2022/06/20 11:07:34;;;;;;;9.87;7.57;;;28.50;89.20;;;;;;5071175;28;20501;-51
2022/06/20 11:10:20;;;;;;;10.00;8.17;;;28.50;91.00;;;;;;5071236;28;20443;-48
2022/06/20 11:12:57;;;;;;;10.20;7.67;;;28.50;90.70;;;;;;5071313;28;20444;-48
2022/06/20 11:15:34;;;;;;;9.40;8.30;;;28.50;91.50;;;;;;5071564;28;20483;-51
2022/06/20 11:18:14;;;;;;;9.00;8.17;;;28.50;91.80;;;;;;5071374;28;20440;-48
2022/06/20 11:20:45;;;;;;;23.20;9.07;;;28.50;90.20;;;;;;5071163;28;20478;-48
2022/06/20 11:23:19;;;;;;;18.30;8.70;;;28.60;89.90;;;;;;5071294;28;20527;-50
2022/06/20 11:25:55;;;;;;;8.37;7.57;;;28.40;89.10;;;;;;5071140;28;20472;-49
2022/06/20 11:28:49;;;;;;;17.37;8.37;;;28.50;91.00;;;;;;5073191;28;20450;-48
2022/06/20 11:31:24;;;;;;;8.33;7.53;;;28.50;89.70;;;;;;5075539;28;20497;-48
2022/06/20 11:34:06;;;;;;;9.77;7.40;;;28.40;92.70;;;;;;5075519;28;20421;-47
2022/06/20 11:36:49;;;;;;;9.63;7.90;;;28.40;88.60;;;;;;5075784;28;20444;-47
2022/06/20 11:39:33;;;;;;;11.20;7.00;;;28.30;91.60;;;;;;5075048;28;20444;-48
2022/06/20 11:42:10;;;;;;;13.50;8.17;;;28.30;90.90;;;;;;5075061;28;20858;-51
2022/06/20 11:44:57;;;;;;;12.30;8.40;;;28.40;90.00;;;;;;5075245;28;20486;-48
2022/06/20 11:47:51;;;;;;;8.70;7.77;;;28.40;92.00;;;;;;5075018;28;20511;-52
2022/06/20 11:50:30;;;;;;;11.07;8.73;;;28.30;89.60;;;;;;5074453;28;20493;-47
2022/06/20 11:53:03;;;;;;;8.87;8.00;;;28.40;91.70;;;;;;5075114;28;20936;-48
2022/06/20 11:55:38;;;;;;;17.30;8.40;;;28.40;90.70;;;;;;5074595;28;20464;-48
2022/06/20 11:58:13;;;;;;;10.67;8.73;;;28.30;88.80;;;;;;5074980;28;20936;-47
2022/06/20 12:00:45;;;;;;;9.90;7.67;;;28.40;90.10;;;;;;5074262;28;20484;-46
2022/06/20 12:03:22;;;;;;;10.87;8.00;;;28.40;91.60;;;;;;5074652;28;20448;-46
2022/06/20 12:05:58;;;;;;;12.37;7.93;;;28.40;90.50;;;;;;5074152;28;20545;-48
2022/06/20 12:08:34;;;;;;;11.20;8.30;;;28.30;89.30;;;;;;5074453;28;20507;-47
2022/06/20 12:11:13;;;;;;;11.17;9.00;;;28.30;89.70;;;;;;5074612;28;20527;-50
2022/06/20 12:13:50;;;;;;;10.47;8.93;;;28.30;91.50;;;;;;5074462;28;20527;-47
2022/06/20 12:16:55;;;;;;;22.03;9.43;;;28.40;90.50;;;;;;5074527;28;20518;-47
2022/06/20 12:25:33;;;;;;;18.83;8.90;;;28.50;89.30;;;;;;5011648;28;20450;-47
2022/06/20 12:28:02;;;;;;;21.60;8.70;;;28.50;89.10;;;;;;5049988;28;20552;-49
2022/06/20 12:30:31;;;;;;;94.27;16.03;;;28.50;87.90;;;;;;5073772;28;20490;-47
2022/06/20 12:32:59;;;;;;;13.00;8.13;;;28.50;88.00;;;;;;5074012;28;20452;-47
2022/06/20 12:35:32;;;;;;;14.53;8.80;;;28.60;90.70;;;;;;5074037;28;20494;-50
2022/06/20 12:38:06;;;;;;;14.07;8.77;;;28.60;91.40;;;;;;5073867;28;20455;-49
2022/06/20 12:40:37;;;;;;;9.60;8.60;;;28.60;90.10;;;;;;5073156;28;20913;-47
2022/06/20 12:43:10;;;;;;;9.33;7.47;;;28.70;90.20;;;;;;5074469;28;20452;-47
2022/06/20 12:46:14;;;;;;;9.17;7.77;;;28.70;90.50;;;;;;5074140;28;20496;-49
2022/06/20 12:49:18;;;;;;;14.20;9.30;;;28.70;90.10;;;;;;5073234;28;20567;-46
2022/06/20 12:51:56;;;;;;;63.37;12.70;;;28.70;91.10;;;;;;5069007;28;20943;-47
2022/06/20 12:54:47;;;;;;;15.77;8.87;;;28.70;89.60;;;;;;5073659;28;20445;-46
2022/06/20 12:57:30;;;;;;;13.47;9.07;;;28.50;90.40;;;;;;5074106;28;20528;-48
2022/06/20 13:00:38;;;;;;;10.70;8.40;;;28.30;92.40;;;;;;5073575;28;20998;-48
2022/06/20 13:03:41;;;;;;;19.53;8.77;;;28.10;91.60;;;;;;5074190;28;20502;-47
2022/06/20 13:06:26;;;;;;;11.93;8.87;;;28.00;91.80;;;;;;5073072;28;20462;-46
2022/06/20 13:09:14;;;;;;;10.20;9.17;;;27.80;91.20;;;;;;5073444;28;20567;-47
2022/06/20 13:11:49;;;;;;;10.50;9.37;;;27.70;92.10;;;;;;5073820;28;20953;-47
2022/06/20 13:14:33;;;;;;;12.97;9.50;;;27.50;93.30;;;;;;5073742;28;20515;-47
2022/06/20 13:17:14;;;;;;;21.53;10.30;;;27.30;93.80;;;;;;5073306;28;20476;-46
2022/06/20 13:19:56;;;;;;;9.27;8.30;;;27.00;96.00;;;;;;5073199;28;20448;-47
2022/06/20 13:22:31;;;;;;;15.30;9.97;;;26.70;95.70;;;;;;5073549;28;21003;-47
2022/06/20 13:25:15;;;;;;;13.93;10.70;;;25.80;97.30;;;;;;5073254;28;20472;-49
2022/06/20 13:27:49;;;;;;;18.03;11.13;;;25.30;98.90;;;;;;5073245;28;20472;-47
2022/06/20 13:30:21;;;;;;;12.27;10.03;;;25.00;99.90;;;;;;5072995;28;20855;-46
2022/06/20 13:32:58;;;;;;;14.97;10.57;;;24.70;99.90;;;;;;5073214;28;20440;-46
2022/06/20 13:35:34;;;;;;;12.63;9.87;;;24.50;99.90;;;;;;5073166;28;20460;-46